Time;durP1;ratioP1;P1;durP2;ratioP2;P2;SDS_P1;SDS_P2;PMS_P1;PMS_P2;Temp;Humidity;BMP_temperature;BMP_pressure;BME280_temperature;BME280_humidity;BME280_pressure;Samples;Min_cycle;Max_cycle;Signal;HPM_P1;HPM_P2
2022/12/12 00:02:18;;;;;;;;;;;;;;;;;;5089820;28;959;-68
2022/12/12 00:04:44;;;;;;;;;;;;;;;;;;5072529;28;1222;-69
2022/12/12 00:07:09;;;;;;;;;;;;;;;;;;5089406;28;1309;-69
2022/12/12 00:09:34;;;;;;;;;;;;;;;;;;5072329;28;1475;-65
2022/12/12 00:12:00;;;;;;;;;;;;;;;;;;5072391;28;1186;-65
2022/12/12 00:14:25;;;;;;;;;;;;;;;;;;5088737;28;1898;-65
2022/12/12 00:16:50;;;;;;;;;;;;;;;;;;5090668;28;966;-65
2022/12/12 00:19:15;;;;;;;;;;;;;;;;;;5072056;28;1318;-69
2022/12/12 00:21:41;;;;;;;;;;;;;;;;;;5090755;28;903;-68
2022/12/12 00:24:06;;;;;;;;;;;;;;;;;;5088854;28;829;-68
2022/12/12 00:26:33;;;;;;;;;;;;;;;;;;5088607;28;1285;-69
2022/12/12 00:28:58;;;;;;;;;;;;;;;;;;5088919;28;1382;-69
2022/12/12 00:31:24;;;;;;;;;;;;;;;;;;5090076;28;801;-68
2022/12/12 00:33:49;;;;;;;;;;;;;;;;;;5090180;28;1901;-68
2022/12/12 00:36:16;;;;;;;;;;;;;;;;;;5090007;28;872;-69
2022/12/12 00:38:41;;;;;;;;;;;;;;;;;;5089313;28;1381;-68
2022/12/12 00:41:07;;;;;;;;;;;;;;;;;;5089903;28;991;-69
2022/12/12 00:43:32;;;;;;;;;;;;;;;;;;5089802;28;896;-69
2022/12/12 00:45:58;;;;;;;;;;;;;;;;;;5088658;28;1144;-69
2022/12/12 00:48:23;;;;;;;;;;;;;;;;;;5088327;28;995;-69
2022/12/12 00:50:48;;;;;;;;;;;;;;;;;;5088679;28;1300;-68
2022/12/12 00:53:13;;;;;;;;;;;;;;;;;;5088368;28;1959;-68
2022/12/12 00:55:39;;;;;;;;;;;;;;;;;;5090018;28;951;-69
2022/12/12 00:58:04;;;;;;;;;;;;;;;;;;5089320;28;1207;-68
2022/12/12 01:00:30;;;;;;;;;;;;;;;;;;5090495;28;919;-68
2022/12/12 01:02:56;;;;;;;;;;;;;;;;;;5088713;28;1241;-69
2022/12/12 01:05:21;;;;;;;;;;;;;;;;;;5086968;28;1147;-68
2022/12/12 01:07:46;;;;;;;;;;;;;;;;;;5090394;28;1369;-69
2022/12/12 01:10:12;;;;;;;;;;;;;;;;;;5109152;28;836;-68
2022/12/12 01:12:37;;;;;;;;;;;;;;;;;;5109917;28;1906;-69
2022/12/12 01:15:03;;;;;;;;;;;;;;;;;;5115257;28;804;-68
2022/12/12 01:17:34;;;;;;;;;;;;;;;;;;5113538;28;1050;-68
2022/12/12 01:19:59;;;;;;;;;;;;;;;;;;5112858;28;1356;-68
2022/12/12 01:22:24;;;;;;;;;;;;;;;;;;5113281;28;864;-69
2022/12/12 01:24:49;;;;;;;;;;;;;;;;;;5114107;28;919;-69
2022/12/12 01:27:15;;;;;;;;;;;;;;;;;;5113606;28;888;-68
2022/12/12 01:29:40;;;;;;;;;;;;;;;;;;5113853;28;895;-68
2022/12/12 01:32:05;;;;;;;;;;;;;;;;;;5112657;28;1218;-69
2022/12/12 01:34:31;;;;;;;;;;;;;;;;;;5111866;28;1922;-68
2022/12/12 01:36:56;;;;;;;;;;;;;;;;;;5095595;28;1214;-66
2022/12/12 01:39:21;;;;;;;;;;;;;;;;;;5111924;28;1205;-65
2022/12/12 01:41:46;;;;;;;;;;;;;;;;;;5114781;27;852;-65
2022/12/12 01:44:30;;;;;;;;;;;;;;;;;;5112208;28;1317;-65
2022/12/12 01:46:56;;;;;;;;;;;;;;;;;;5113675;28;880;-65
2022/12/12 01:49:25;;;;;;;;;;;;;;;;;;5111315;28;1295;-64
2022/12/12 01:52:00;;;;;;;;;;;;;;;;;;5113765;28;954;-65
2022/12/12 01:54:31;;;;;;;;;;;;;;;;;;5112929;27;1929;-65
2022/12/12 01:56:59;;;;;;;;;;;;;;;;;;5112318;28;1320;-65
2022/12/12 01:59:25;;;;;;;;;;;;;;;;;;5111274;28;1308;-65
2022/12/12 02:01:51;;;;;;;;;;;;;;;;;;5113845;28;1018;-65
2022/12/12 02:04:17;;;;;;;;;;;;;;;;;;5113344;28;915;-65
2022/12/12 02:06:43;;;;;;;;;;;;;;;;;;5111665;28;1158;-65
2022/12/12 02:09:11;;;;;;;;;;;;;;;;;;5113274;28;840;-65
2022/12/12 02:12:02;;;;;;;;;;;;;;;;;;5112718;28;843;-64
2022/12/12 02:14:30;;;;;;;;;;;;;;;;;;5110489;28;1968;-64
2022/12/12 02:17:08;;;;;;;;;;;;;;;;;;5113237;28;1068;-64
2022/12/12 02:19:36;;;;;;;;;;;;;;;;;;5112445;28;904;-64
2022/12/12 02:22:21;;;;;;;;;;;;;;;;;;5113050;28;934;-64
2022/12/12 02:24:46;;;;;;;;;;;;;;;;;;5111149;28;1305;-64
2022/12/12 02:27:14;;;;;;;;;;;;;;;;;;5112943;28;983;-65
2022/12/12 02:29:52;;;;;;;;;;;;;;;;;;5111601;28;1253;-65
2022/12/12 02:32:36;;;;;;;;;;;;;;;;;;5111695;28;1170;-65
2022/12/12 02:35:15;;;;;;;;;;;;;;;;;;5112342;28;1249;-65
2022/12/12 02:37:50;;;;;;;;;;;;;;;;;;5112595;28;1174;-64
2022/12/12 02:40:23;;;;;;;;;;;;;;;;;;5111614;28;1256;-64
2022/12/12 02:42:56;;;;;;;;;;;;;;;;;;5113570;28;1034;-64
2022/12/12 02:45:35;;;;;;;;;;;;;;;;;;5112529;28;1043;-65
2022/12/12 02:48:24;;;;;;;;;;;;;;;;;;5113418;28;825;-65
2022/12/12 02:50:51;;;;;;;;;;;;;;;;;;5082704;28;1373;-65
2022/12/12 02:53:17;;;;;;;;;;;;;;;;;;5112151;28;1894;-65
2022/12/12 02:55:43;;;;;;;;;;;;;;;;;;5112512;28;840;-65
2022/12/12 02:58:08;;;;;;;;;;;;;;;;;;5111236;28;1304;-65
2022/12/12 03:00:39;;;;;;;;;;;;;;;;;;5109938;28;1137;-65
2022/12/12 03:08:43;;;;;;;;;;;;;;;;;;5111551;28;698;-65
2022/12/12 03:11:14;;;;;;;;;;;;;;;;;;5112406;28;1113;-65
2022/12/12 03:13:50;;;;;;;;;;;;;;;;;;5111555;28;1962;-65
2022/12/12 03:16:15;;;;;;;;;;;;;;;;;;5112010;28;1046;-65
2022/12/12 03:18:40;;;;;;;;;;;;;;;;;;5110141;28;1205;-65
2022/12/12 03:21:15;;;;;;;;;;;;;;;;;;5111812;28;836;-65
2022/12/12 03:23:43;;;;;;;;;;;;;;;;;;5111535;28;856;-65
2022/12/12 03:26:11;;;;;;;;;;;;;;;;;;5111953;28;927;-65
2022/12/12 03:28:45;;;;;;;;;;;;;;;;;;5109647;28;1162;-65
2022/12/12 03:31:12;;;;;;;;;;;;;;;;;;5112293;28;856;-66
2022/12/12 03:33:40;;;;;;;;;;;;;;;;;;5110918;28;1906;-65
2022/12/12 03:36:09;;;;;;;;;;;;;;;;;;5109587;28;1300;-65
2022/12/12 03:38:37;;;;;;;;;;;;;;;;;;5110692;28;1049;-65
2022/12/12 03:41:04;;;;;;;;;;;;;;;;;;5111837;28;824;-65
2022/12/12 03:43:30;;;;;;;;;;;;;;;;;;5110930;28;809;-65
2022/12/12 03:46:06;;;;;;;;;;;;;;;;;;5111256;28;1417;-65
2022/12/12 03:48:40;;;;;;;;;;;;;;;;;;5109798;28;1094;-65
2022/12/12 03:51:11;;;;;;;;;;;;;;;;;;5111171;28;969;-65
2022/12/12 03:53:55;;;;;;;;;;;;;;;;;;5110627;28;1984;-64
2022/12/12 03:56:33;;;;;;;;;;;;;;;;;;5110743;28;1030;-64
2022/12/12 03:58:58;;;;;;;;;;;;;;;;;;5111929;28;898;-64
2022/12/12 04:01:27;;;;;;;;;;;;;;;;;;5110084;28;1113;-65
2022/12/12 04:04:07;;;;;;;;;;;;;;;;;;5111281;28;1284;-65
2022/12/12 04:06:35;;;;;;;;;;;;;;;;;;5111556;28;921;-66
2022/12/12 04:15:14;;;;;;;;;;;;;;;;;;5111221;28;1911;-66
2022/12/12 04:17:58;;;;;;;;;;;;;;;;;;5109044;28;1277;-66
2022/12/12 04:23:25;;;;;;;;;;;;;;;;;;5109602;28;709;-66
2022/12/12 04:28:56;;;;;;;;;;;;;;;;;;5110017;28;611;-65
2022/12/12 04:31:24;;;;;;;;;;;;;;;;;;5110033;28;891;-64
2022/12/12 04:33:50;;;;;;;;;;;;;;;;;;5110877;28;1894;-64
2022/12/12 04:36:17;;;;;;;;;;;;;;;;;;5109427;28;1068;-64
2022/12/12 04:38:44;;;;;;;;;;;;;;;;;;5108575;28;1206;-66
2022/12/12 04:41:10;;;;;;;;;;;;;;;;;;5110899;28;868;-64
2022/12/12 04:43:37;;;;;;;;;;;;;;;;;;5108599;28;1206;-64
2022/12/12 04:46:12;;;;;;;;;;;;;;;;;;5110609;28;1302;-64
2022/12/12 04:48:50;;;;;;;;;;;;;;;;;;5112431;28;1156;-64
2022/12/12 04:51:20;;;;;;;;;;;;;;;;;;5113497;28;1312;-64
2022/12/12 04:53:48;;;;;;;;;;;;;;;;;;5112780;28;1971;-64
2022/12/12 04:56:17;;;;;;;;;;;;;;;;;;5114916;28;777;-64
2022/12/12 04:58:43;;;;;;;;;;;;;;;;;;5112649;28;1367;-64
2022/12/12 05:01:22;;;;;;;;;;;;;;;;;;5114800;28;990;-64
2022/12/12 05:03:47;;;;;;;;;;;;;;;;;;5113127;28;1146;-65
2022/12/12 05:06:14;;;;;;;;;;;;;;;;;;5113605;28;1225;-65
2022/12/12 05:08:42;;;;;;;;;;;;;;;;;;5112317;28;1288;-65
2022/12/12 05:11:08;;;;;;;;;;;;;;;;;;5112941;28;1280;-64
2022/12/12 05:13:35;;;;;;;;;;;;;;;;;;5113874;28;1901;-65
2022/12/12 05:16:02;;;;;;;;;;;;;;;;;;5112818;28;1305;-65
2022/12/12 05:18:27;;;;;;;;;;;;;;;;;;5113509;27;1061;-65
2022/12/12 05:20:53;;;;;;;;;;;;;;;;;;5114468;28;825;-65
2022/12/12 05:23:18;;;;;;;;;;;;;;;;;;5114336;28;864;-65
2022/12/12 05:25:43;;;;;;;;;;;;;;;;;;5111793;28;1214;-64
2022/12/12 05:28:09;;;;;;;;;;;;;;;;;;5112968;28;1217;-66
2022/12/12 05:30:34;;;;;;;;;;;;;;;;;;5111895;28;1213;-65
2022/12/12 05:32:59;;;;;;;;;;;;;;;;;;5113779;28;1902;-65
2022/12/12 05:35:25;;;;;;;;;;;;;;;;;;5094933;28;1293;-65
2022/12/12 05:37:50;;;;;;;;;;;;;;;;;;5113606;28;1304;-65
2022/12/12 05:40:16;;;;;;;;;;;;;;;;;;5113848;28;1300;-64
2022/12/12 05:42:41;;;;;;;;;;;;;;;;;;5114805;28;975;-65
2022/12/12 05:45:07;;;;;;;;;;;;;;;;;;5113339;28;1075;-65
2022/12/12 05:47:33;;;;;;;;;;;;;;;;;;5112694;28;1197;-66
2022/12/12 05:49:58;;;;;;;;;;;;;;;;;;5113742;28;1186;-66
2022/12/12 05:52:23;;;;;;;;;;;;;;;;;;5108898;28;1135;-65
2022/12/12 05:54:49;;;;;;;;;;;;;;;;;;5098969;28;1913;-65
2022/12/12 05:57:16;;;;;;;;;;;;;;;;;;5113189;28;1245;-65
2022/12/12 05:59:41;;;;;;;;;;;;;;;;;;5112549;28;860;-65
2022/12/12 06:02:06;;;;;;;;;;;;;;;;;;5113608;28;926;-64
2022/12/12 06:04:31;;;;;;;;;;;;;;;;;;5111039;28;1405;-65
2022/12/12 06:06:57;;;;;;;;;;;;;;;;;;5111833;28;1411;-65
2022/12/12 06:09:22;;;;;;;;;;;;;;;;;;5112723;28;844;-64
2022/12/12 06:11:48;;;;;;;;;;;;;;;;;;5094521;28;1186;-65
2022/12/12 06:14:13;;;;;;;;;;;;;;;;;;5113183;28;1957;-64
2022/12/12 06:16:38;;;;;;;;;;;;;;;;;;5094416;28;1208;-65
2022/12/12 06:19:03;;;;;;;;;;;;;;;;;;5111538;28;1248;-65
2022/12/12 06:21:29;;;;;;;;;;;;;;;;;;5110020;28;1214;-64
2022/12/12 06:23:54;;;;;;;;;;;;;;;;;;5111150;28;1154;-68
2022/12/12 06:26:20;;;;;;;;;;;;;;;;;;5112322;28;1171;-68
2022/12/12 06:28:46;;;;;;;;;;;;;;;;;;5111880;28;796;-68
2022/12/12 06:31:12;;;;;;;;;;;;;;;;;;5094490;28;1076;-64
2022/12/12 06:33:38;;;;;;;;;;;;;;;;;;5110291;28;1909;-65
2022/12/12 06:36:04;;;;;;;;;;;;;;;;;;5113249;28;939;-65
2022/12/12 06:38:30;;;;;;;;;;;;;;;;;;5112652;28;840;-65
2022/12/12 06:40:56;;;;;;;;;;;;;;;;;;5110845;28;1030;-65
2022/12/12 06:43:22;;;;;;;;;;;;;;;;;;5112282;28;926;-65
2022/12/12 06:45:47;;;;;;;;;;;;;;;;;;5110467;28;1032;-65
2022/12/12 06:48:12;;;;;;;;;;;;;;;;;;5094309;28;1188;-65
2022/12/12 06:50:39;;;;;;;;;;;;;;;;;;5111890;28;841;-65
2022/12/12 06:53:04;;;;;;;;;;;;;;;;;;5112422;28;1968;-65
2022/12/12 06:55:29;;;;;;;;;;;;;;;;;;5093382;28;1254;-65
2022/12/12 06:57:55;;;;;;;;;;;;;;;;;;5112272;27;809;-65
2022/12/12 07:00:20;;;;;;;;;;;;;;;;;;5112841;28;978;-65
2022/12/12 07:02:45;;;;;;;;;;;;;;;;;;5111534;28;828;-65
2022/12/12 07:05:11;;;;;;;;;;;;;;;;;;5111163;28;1210;-65
2022/12/12 07:07:36;;;;;;;;;;;;;;;;;;5112449;28;892;-65
2022/12/12 07:10:01;;;;;;;;;;;;;;;;;;5111200;28;888;-65
2022/12/12 07:12:27;;;;;;;;;;;;;;;;;;5112307;28;968;-65
2022/12/12 07:14:52;;;;;;;;;;;;;;;;;;5112519;28;1956;-65
2022/12/12 07:17:17;;;;;;;;;;;;;;;;;;5111617;28;879;-65
2022/12/12 07:19:42;;;;;;;;;;;;;;;;;;5092840;28;1275;-65
2022/12/12 07:22:08;;;;;;;;;;;;;;;;;;5093871;28;1316;-66
2022/12/12 07:24:33;;;;;;;;;;;;;;;;;;5102287;28;1253;-65
2022/12/12 07:26:58;;;;;;;;;;;;;;;;;;5090748;28;809;-65
2022/12/12 07:29:24;;;;;;;;;;;;;;;;;;5090538;28;1003;-65
2022/12/12 07:31:49;;;;;;;;;;;;;;;;;;5091050;28;814;-65
2022/12/12 07:34:14;;;;;;;;;;;;;;;;;;5089682;28;1901;-66
2022/12/12 07:36:39;;;;;;;;;;;;;;;;;;5090546;28;836;-65
2022/12/12 07:39:05;;;;;;;;;;;;;;;;;;5072947;28;1171;-64
2022/12/12 07:41:30;;;;;;;;;;;;;;;;;;5090135;28;978;-65
2022/12/12 07:43:55;;;;;;;;;;;;;;;;;;5089324;28;994;-64
2022/12/12 07:46:22;;;;;;;;;;;;;;;;;;5071979;28;1239;-64
2022/12/12 07:48:47;;;;;;;;;;;;;;;;;;5090129;28;900;-64
2022/12/12 07:51:13;;;;;;;;;;;;;;;;;;5089421;28;1190;-64
2022/12/12 07:53:39;;;;;;;;;;;;;;;;;;5072063;28;1918;-64
2022/12/12 07:56:06;;;;;;;;;;;;;;;;;;5089184;28;1297;-65
2022/12/12 07:58:31;;;;;;;;;;;;;;;;;;5090183;28;856;-64
2022/12/12 08:00:56;;;;;;;;;;;;;;;;;;5072109;28;1194;-64
2022/12/12 08:03:22;;;;;;;;;;;;;;;;;;5090425;28;947;-65
2022/12/12 08:05:47;;;;;;;;;;;;;;;;;;5088611;28;995;-65
2022/12/12 08:08:12;;;;;;;;;;;;;;;;;;5072517;28;1214;-65
2022/12/12 08:10:39;;;;;;;;;;;;;;;;;;5090298;28;825;-65
2022/12/12 08:13:05;;;;;;;;;;;;;;;;;;5090250;28;1918;-65
2022/12/12 08:15:30;;;;;;;;;;;;;;;;;;5088726;28;1349;-65
2022/12/12 08:17:55;;;;;;;;;;;;;;;;;;5088773;28;1064;-65
2022/12/12 08:20:21;;;;;;;;;;;;;;;;;;5090365;28;1018;-65
2022/12/12 08:22:47;;;;;;;;;;;;;;;;;;5087998;28;1357;-65
2022/12/12 08:25:12;;;;;;;;;;;;;;;;;;5090504;28;888;-65
2022/12/12 08:27:38;;;;;;;;;;;;;;;;;;5088636;28;844;-65
2022/12/12 08:30:03;;;;;;;;;;;;;;;;;;5090568;28;900;-65
2022/12/12 08:32:29;;;;;;;;;;;;;;;;;;5089317;28;1304;-65
2022/12/12 08:34:55;;;;;;;;;;;;;;;;;;5091190;28;1906;-65
2022/12/12 08:37:20;;;;;;;;;;;;;;;;;;5091169;28;873;-64
2022/12/12 08:39:45;;;;;;;;;;;;;;;;;;5089955;28;1139;-65
2022/12/12 08:42:12;;;;;;;;;;;;;;;;;;5089771;28;1447;-65
2022/12/12 08:44:37;;;;;;;;;;;;;;;;;;5071589;28;1306;-65
2022/12/12 08:47:02;;;;;;;;;;;;;;;;;;5071604;28;1408;-65
2022/12/12 08:49:28;;;;;;;;;;;;;;;;;;5089043;28;881;-65
2022/12/12 08:51:53;;;;;;;;;;;;;;;;;;5088638;28;911;-65
2022/12/12 08:54:18;;;;;;;;;;;;;;;;;;5088907;28;1948;-65
2022/12/12 08:56:43;;;;;;;;;;;;;;;;;;5071396;28;1234;-65
2022/12/12 08:59:09;;;;;;;;;;;;;;;;;;5090388;28;837;-65
2022/12/12 09:01:34;;;;;;;;;;;;;;;;;;5088305;28;1254;-65
2022/12/12 09:03:59;;;;;;;;;;;;;;;;;;5088981;28;1356;-65
2022/12/12 09:06:25;;;;;;;;;;;;;;;;;;5090097;28;951;-65
2022/12/12 09:08:51;;;;;;;;;;;;;;;;;;5088155;28;1178;-65
2022/12/12 09:11:17;;;;;;;;;;;;;;;;;;5090140;28;814;-65
2022/12/12 09:13:42;;;;;;;;;;;;;;;;;;5089336;28;1961;-65
2022/12/12 09:16:08;;;;;;;;;;;;;;;;;;5088775;28;1282;-65
2022/12/12 09:18:34;;;;;;;;;;;;;;;;;;5089526;28;840;-65
2022/12/12 09:20:59;;;;;;;;;;;;;;;;;;5088912;28;1358;-65
2022/12/12 09:23:25;;;;;;;;;;;;;;;;;;5088723;28;1277;-65
2022/12/12 09:25:51;;;;;;;;;;;;;;;;;;5089599;28;931;-65
2022/12/12 09:28:18;;;;;;;;;;;;;;;;;;5088588;28;1125;-64
2022/12/12 09:30:43;;;;;;;;;;;;;;;;;;5088072;28;1464;-64
2022/12/12 09:33:09;;;;;;;;;;;;;;;;;;5089011;28;1889;-65
2022/12/12 09:35:34;;;;;;;;;;;;;;;;;;5092898;28;864;-65
2022/12/12 09:38:00;;;;;;;;;;;;;;;;;;5074847;28;1128;-64
2022/12/12 09:40:46;;;;;;;;;;;;;;;;;;5075476;28;1286;-65
2022/12/12 09:43:16;;;;;;;;;;;;;;;;;;5081567;28;1243;-65
2022/12/12 09:45:41;;;;;;;;;;;;;;;;;;5091488;28;1213;-64
2022/12/12 09:48:07;;;;;;;;;;;;;;;;;;5092069;28;1286;-64
2022/12/12 09:50:37;;;;;;;;;;;;;;;;;;5093024;28;1155;-64
2022/12/12 09:53:04;;;;;;;;;;;;;;;;;;5093038;28;1902;-65
2022/12/12 09:55:32;;;;;;;;;;;;;;;;;;5091279;28;805;-64
2022/12/12 09:58:00;;;;;;;;;;;;;;;;;;5092913;28;887;-64
2022/12/12 10:00:26;;;;;;;;;;;;;;;;;;5093167;28;891;-64
2022/12/12 10:03:02;;;;;;;;;;;;;;;;;;5092431;28;836;-64
2022/12/12 10:05:41;;;;;;;;;;;;;;;;;;5091152;28;1325;-64
2022/12/12 10:08:15;;;;;;;;;;;;;;;;;;5092788;28;895;-65
2022/12/12 10:10:44;;;;;;;;;;;;;;;;;;5093502;28;919;-65
2022/12/12 10:13:14;;;;;;;;;;;;;;;;;;5091478;28;1906;-65
2022/12/12 10:15:42;;;;;;;;;;;;;;;;;;5093617;28;1163;-65
2022/12/12 10:18:21;;;;;;;;;;;;;;;;;;5093168;28;1616;-65
2022/12/12 10:20:52;;;;;;;;;;;;;;;;;;5093877;28;908;-65
2022/12/12 10:23:24;;;;;;;;;;;;;;;;;;5094761;28;853;-65
2022/12/12 10:25:50;;;;;;;;;;;;;;;;;;5090913;28;1305;-65
2022/12/12 10:28:17;;;;;;;;;;;;;;;;;;5092628;28;1066;-65
2022/12/12 10:31:03;;;;;;;;;;;;;;;;;;5091326;28;1285;-65
2022/12/12 10:33:29;;;;;;;;;;;;;;;;;;5090439;28;1965;-65
2022/12/12 10:35:58;;;;;;;;;;;;;;;;;;5093783;28;907;-65
2022/12/12 10:38:32;;;;;;;;;;;;;;;;;;5091840;28;1249;-65
2022/12/12 10:41:02;;;;;;;;;;;;;;;;;;5092843;28;896;-65
2022/12/12 10:43:30;;;;;;;;;;;;;;;;;;5091891;28;845;-65
2022/12/12 10:45:56;;;;;;;;;;;;;;;;;;5090853;28;1289;-65
2022/12/12 10:48:21;;;;;;;;;;;;;;;;;;5092859;28;1054;-65
2022/12/12 10:50:48;;;;;;;;;;;;;;;;;;5092303;28;860;-65
2022/12/12 10:53:14;;;;;;;;;;;;;;;;;;5092410;28;1902;-65
2022/12/12 10:55:48;;;;;;;;;;;;;;;;;;5091623;28;899;-65
2022/12/12 10:58:16;;;;;;;;;;;;;;;;;;5092264;28;828;-65
2022/12/12 11:00:42;;;;;;;;;;;;;;;;;;5092103;28;891;-66
2022/12/12 11:03:20;;;;;;;;;;;;;;;;;;5092730;28;862;-66
2022/12/12 11:05:45;;;;;;;;;;;;;;;;;;5092194;28;805;-66
2022/12/12 11:08:24;;;;;;;;;;;;;;;;;;5091004;28;931;-66
2022/12/12 11:11:03;;;;;;;;;;;;;;;;;;5091867;28;907;-66
2022/12/12 11:13:29;;;;;;;;;;;;;;;;;;5091564;28;1965;-66
2022/12/12 11:16:07;;;;;;;;;;;;;;;;;;5091819;28;813;-66
2022/12/12 11:18:32;;;;;;;;;;;;;;;;;;5092148;28;837;-66
2022/12/12 11:21:00;;;;;;;;;;;;;;;;;;5091755;28;958;-66
2022/12/12 11:23:27;;;;;;;;;;;;;;;;;;5091709;28;946;-65
2022/12/12 11:25:54;;;;;;;;;;;;;;;;;;5090210;28;1033;-65
2022/12/12 11:28:21;;;;;;;;;;;;;;;;;;5089912;28;1285;-65
2022/12/12 11:30:49;;;;;;;;;;;;;;;;;;5091191;28;915;-65
2022/12/12 11:33:19;;;;;;;;;;;;;;;;;;5091643;28;1941;-65
2022/12/12 11:35:45;;;;;;;;;;;;;;;;;;5092245;28;899;-65
2022/12/12 11:38:39;;;;;;;;;;;;;;;;;;5092616;28;856;-65
2022/12/12 11:41:06;;;;;;;;;;;;;;;;;;5077888;28;1270;-65
2022/12/12 11:43:53;;;;;;;;;;;;;;;;;;5089335;28;1214;-66
2022/12/12 11:46:24;;;;;;;;;;;;;;;;;;5089031;28;1424;-64
2022/12/12 11:48:53;;;;;;;;;;;;;;;;;;5089952;28;1218;-65
2022/12/12 11:51:33;;;;;;;;;;;;;;;;;;5092181;28;864;-65
2022/12/12 11:53:58;;;;;;;;;;;;;;;;;;5090354;28;1913;-65
2022/12/12 11:56:31;;;;;;;;;;;;;;;;;;5071901;28;1234;-65
2022/12/12 11:59:12;;;;;;;;;;;;;;;;;;5091036;28;743;-67
2022/12/12 12:01:51;;;;;;;;;;;;;;;;;;5089715;28;1448;-66
2022/12/12 12:04:21;;;;;;;;;;;;;;;;;;5090729;28;837;-65
2022/12/12 12:06:52;;;;;;;;;;;;;;;;;;5089374;28;1209;-64
2022/12/12 12:09:24;;;;;;;;;;;;;;;;;;5089133;28;1349;-68
2022/12/12 12:12:00;;;;;;;;;;;;;;;;;;5090060;28;887;-68
2022/12/12 12:15:01;;;;;;;;;;;;;;;;;;5090218;28;1983;-68
2022/12/12 12:17:26;;;;;;;;;;;;;;;;;;5030984;28;1366;-68
2022/12/12 12:20:05;;;;;;;;;;;;;;;;;;5080795;28;964;-68
2022/12/12 12:22:49;;;;;;;;;;;;;;;;;;5090139;28;809;-68
2022/12/12 12:25:26;;;;;;;;;;;;;;;;;;5090314;28;967;-68
2022/12/12 12:28:11;;;;;;;;;;;;;;;;;;5089728;28;836;-68
2022/12/12 12:30:46;;;;;;;;;;;;;;;;;;5057473;28;1243;-68
2022/12/12 12:33:11;;;;;;;;;;;;;;;;;;5090314;28;1898;-68
2022/12/12 12:35:39;;;;;;;;;;;;;;;;;;5088710;28;1325;-68
2022/12/12 12:38:16;;;;;;;;;;;;;;;;;;5089001;28;1246;-68
2022/12/12 12:40:57;;;;;;;;;;;;;;;;;;5088543;28;1223;-68
2022/12/12 12:43:28;;;;;;;;;;;;;;;;;;5090386;28;892;-70
2022/12/12 12:46:05;;;;;;;;;;;;;;;;;;5089444;28;1130;-69
2022/12/12 12:48:34;;;;;;;;;;;;;;;;;;5090146;28;812;-69
2022/12/12 12:51:02;;;;;;;;;;;;;;;;;;5093929;28;1254;-68
2022/12/12 12:53:32;;;;;;;;;;;;;;;;;;5089278;28;1955;-68
2022/12/12 12:56:01;;;;;;;;;;;;;;;;;;5088237;28;1182;-68
2022/12/12 12:58:30;;;;;;;;;;;;;;;;;;5089776;28;872;-68
2022/12/12 13:01:10;;;;;;;;;;;;;;;;;;5089065;28;923;-68
2022/12/12 13:04:04;;;;;;;;;;;;;;;;;;5088292;28;1034;-68
2022/12/12 13:06:50;;;;;;;;;;;;;;;;;;5080548;28;1310;-68
2022/12/12 13:09:31;;;;;;;;;;;;;;;;;;5091950;28;1136;-65
2022/12/12 13:12:02;;;;;;;;;;;;;;;;;;5094007;28;867;-65
2022/12/12 13:14:34;;;;;;;;;;;;;;;;;;5093505;28;1952;-66
2022/12/12 13:17:05;;;;;;;;;;;;;;;;;;5094270;28;879;-66
2022/12/12 13:19:34;;;;;;;;;;;;;;;;;;5094050;28;919;-66
2022/12/12 13:21:59;;;;;;;;;;;;;;;;;;5094608;28;861;-66
2022/12/12 13:24:30;;;;;;;;;;;;;;;;;;5094665;28;828;-66
2022/12/12 13:26:56;;;;;;;;;;;;;;;;;;5094854;28;903;-66
2022/12/12 13:29:30;;;;;;;;;;;;;;;;;;5094888;28;938;-66
2022/12/12 13:31:55;;;;;;;;;;;;;;;;;;5094772;28;888;-66
2022/12/12 13:34:23;;;;;;;;;;;;;;;;;;5093866;28;1953;-66
2022/12/12 13:36:50;;;;;;;;;;;;;;;;;;5093022;28;939;-66
2022/12/12 13:39:27;;;;;;;;;;;;;;;;;;5093696;28;931;-65
2022/12/12 13:42:03;;;;;;;;;;;;;;;;;;5091662;28;1238;-66
2022/12/12 13:44:40;;;;;;;;;;;;;;;;;;5093805;28;1010;-66
2022/12/12 13:47:20;;;;;;;;;;;;;;;;;;5093346;28;1203;-65
2022/12/12 13:49:49;;;;;;;;;;;;;;;;;;5091554;28;1174;-66
2022/12/12 13:52:20;;;;;;;;;;;;;;;;;;5093539;28;987;-65
2022/12/12 13:54:46;;;;;;;;;;;;;;;;;;5091766;28;1901;-65
2022/12/12 13:57:13;;;;;;;;;;;;;;;;;;5091586;28;1320;-66
2022/12/12 13:59:56;;;;;;;;;;;;;;;;;;5091091;28;1345;-66
2022/12/12 14:02:27;;;;;;;;;;;;;;;;;;5092918;28;935;-66
2022/12/12 14:05:11;;;;;;;;;;;;;;;;;;5092889;28;813;-66
2022/12/12 14:07:37;;;;;;;;;;;;;;;;;;5092351;28;817;-66
2022/12/12 14:10:22;;;;;;;;;;;;;;;;;;5092983;28;937;-66
2022/12/12 14:12:47;;;;;;;;;;;;;;;;;;5092823;28;1468;-65
2022/12/12 14:15:31;;;;;;;;;;;;;;;;;;5074756;28;1898;-65
2022/12/12 14:18:01;;;;;;;;;;;;;;;;;;5092199;28;876;-65
2022/12/12 14:20:30;;;;;;;;;;;;;;;;;;5092193;28;817;-65
2022/12/12 14:22:58;;;;;;;;;;;;;;;;;;5092165;28;880;-65
2022/12/12 14:25:34;;;;;;;;;;;;;;;;;;5091057;28;1137;-65
2022/12/12 14:28:19;;;;;;;;;;;;;;;;;;5091052;28;1245;-65
2022/12/12 14:30:45;;;;;;;;;;;;;;;;;;5089941;28;1366;-64
2022/12/12 14:33:16;;;;;;;;;;;;;;;;;;5091222;28;2295;-66
2022/12/12 14:35:59;;;;;;;;;;;;;;;;;;5091118;28;1206;-66
2022/12/12 14:38:31;;;;;;;;;;;;;;;;;;5091693;28;1296;-66
2022/12/12 14:41:00;;;;;;;;;;;;;;;;;;5091315;28;1317;-66
2022/12/12 14:43:28;;;;;;;;;;;;;;;;;;5091815;28;1222;-66
2022/12/12 14:45:58;;;;;;;;;;;;;;;;;;5090362;28;1307;-66
2022/12/12 14:48:23;;;;;;;;;;;;;;;;;;5091383;28;1245;-66
2022/12/12 14:50:54;;;;;;;;;;;;;;;;;;5091853;28;892;-66
2022/12/12 14:53:39;;;;;;;;;;;;;;;;;;5092061;28;1961;-65
2022/12/12 14:56:10;;;;;;;;;;;;;;;;;;5092371;28;1068;-66
2022/12/12 14:58:37;;;;;;;;;;;;;;;;;;5091281;28;1217;-71
2022/12/12 15:01:03;;;;;;;;;;;;;;;;;;5092919;28;884;-70
2022/12/12 15:03:34;;;;;;;;;;;;;;;;;;5092548;28;836;-70
2022/12/12 15:06:18;;;;;;;;;;;;;;;;;;5090895;28;1321;-71
2022/12/12 15:08:43;;;;;;;;;;;;;;;;;;5088893;28;1238;-71
2022/12/12 15:11:16;;;;;;;;;;;;;;;;;;5092520;28;950;-70
2022/12/12 15:13:50;;;;;;;;;;;;;;;;;;5091635;28;1898;-69
2022/12/12 15:16:16;;;;;;;;;;;;;;;;;;5090776;28;1329;-69
2022/12/12 15:18:41;;;;;;;;;;;;;;;;;;5091365;28;817;-71
2022/12/12 15:21:07;;;;;;;;;;;;;;;;;;5091954;28;1031;-70
2022/12/12 15:23:32;;;;;;;;;;;;;;;;;;5090342;28;1270;-71
2022/12/12 15:25:57;;;;;;;;;;;;;;;;;;5090392;28;999;-70
2022/12/12 15:28:23;;;;;;;;;;;;;;;;;;5090239;28;1329;-70
2022/12/12 15:30:52;;;;;;;;;;;;;;;;;;5089492;28;1324;-70
2022/12/12 15:33:22;;;;;;;;;;;;;;;;;;5091300;28;1897;-70
2022/12/12 15:36:10;;;;;;;;;;;;;;;;;;5091492;28;895;-65
2022/12/12 15:38:35;;;;;;;;;;;;;;;;;;5088849;28;1246;-65
2022/12/12 15:41:03;;;;;;;;;;;;;;;;;;5090036;28;1127;-65
2022/12/12 15:43:29;;;;;;;;;;;;;;;;;;5091780;28;1054;-65
2022/12/12 15:45:54;;;;;;;;;;;;;;;;;;5090570;28;1171;-65
2022/12/12 15:48:20;;;;;;;;;;;;;;;;;;5089872;28;1467;-65
2022/12/12 15:50:57;;;;;;;;;;;;;;;;;;5072440;28;1143;-65
2022/12/12 15:53:31;;;;;;;;;;;;;;;;;;5089920;28;1910;-66
2022/12/12 15:55:59;;;;;;;;;;;;;;;;;;5090529;28;904;-65
2022/12/12 15:58:29;;;;;;;;;;;;;;;;;;5089735;28;1420;-65
2022/12/12 16:01:21;;;;;;;;;;;;;;;;;;5091018;28;983;-65
2022/12/12 16:03:57;;;;;;;;;;;;;;;;;;5086571;28;1248;-66
2022/12/12 16:06:43;;;;;;;;;;;;;;;;;;5089663;28;1310;-65
2022/12/12 16:09:08;;;;;;;;;;;;;;;;;;5090703;28;1254;-65
2022/12/12 16:11:47;;;;;;;;;;;;;;;;;;5089153;28;1233;-65
2022/12/12 16:14:24;;;;;;;;;;;;;;;;;;5090493;28;1898;-65
2022/12/12 16:16:56;;;;;;;;;;;;;;;;;;5090051;28;856;-65
2022/12/12 16:19:40;;;;;;;;;;;;;;;;;;5089537;28;1119;-65
2022/12/12 16:22:05;;;;;;;;;;;;;;;;;;5089447;28;1515;-65
2022/12/12 16:24:30;;;;;;;;;;;;;;;;;;5090874;28;883;-65
2022/12/12 16:26:57;;;;;;;;;;;;;;;;;;5090256;28;888;-66
2022/12/12 16:29:22;;;;;;;;;;;;;;;;;;5092131;28;852;-66
2022/12/12 16:31:48;;;;;;;;;;;;;;;;;;5089253;28;1218;-66
2022/12/12 16:34:13;;;;;;;;;;;;;;;;;;5092336;28;1897;-66
2022/12/12 16:36:38;;;;;;;;;;;;;;;;;;5090384;28;892;-71
2022/12/12 16:39:03;;;;;;;;;;;;;;;;;;5089938;28;1170;-66
2022/12/12 16:41:29;;;;;;;;;;;;;;;;;;5089708;28;1230;-66
2022/12/12 16:43:55;;;;;;;;;;;;;;;;;;5093492;28;1002;-66
2022/12/12 16:46:22;;;;;;;;;;;;;;;;;;5076406;28;1234;-66
2022/12/12 16:48:48;;;;;;;;;;;;;;;;;;5094533;28;832;-66
2022/12/12 16:51:15;;;;;;;;;;;;;;;;;;5093273;28;1162;-66
2022/12/12 16:53:40;;;;;;;;;;;;;;;;;;5093762;28;1914;-66
2022/12/12 16:56:06;;;;;;;;;;;;;;;;;;5076525;28;1255;-66
2022/12/12 16:58:31;;;;;;;;;;;;;;;;;;5094507;28;840;-66
2022/12/12 17:00:58;;;;;;;;;;;;;;;;;;5094506;28;773;-66
2022/12/12 17:03:24;;;;;;;;;;;;;;;;;;5094594;28;816;-66
2022/12/12 17:05:50;;;;;;;;;;;;;;;;;;5093476;28;824;-71
2022/12/12 17:08:15;;;;;;;;;;;;;;;;;;5094602;28;980;-71
2022/12/12 17:10:41;;;;;;;;;;;;;;;;;;5092971;28;812;-71
2022/12/12 17:13:11;;;;;;;;;;;;;;;;;;5094539;28;1910;-71
2022/12/12 17:15:37;;;;;;;;;;;;;;;;;;5094042;28;861;-71
2022/12/12 17:18:03;;;;;;;;;;;;;;;;;;5094443;28;848;-71
2022/12/12 17:20:28;;;;;;;;;;;;;;;;;;5094456;28;876;-66
2022/12/12 17:22:54;;;;;;;;;;;;;;;;;;5075011;28;1304;-66
2022/12/12 17:25:20;;;;;;;;;;;;;;;;;;5093160;28;1141;-66
2022/12/12 17:27:45;;;;;;;;;;;;;;;;;;5093203;28;897;-67
2022/12/12 17:30:11;;;;;;;;;;;;;;;;;;5092942;28;1202;-66
2022/12/12 17:32:36;;;;;;;;;;;;;;;;;;5093491;28;867;-66
2022/12/12 17:35:03;;;;;;;;;;;;;;;;;;5093955;28;1965;-66
2022/12/12 17:37:28;;;;;;;;;;;;;;;;;;5092471;28;1175;-67
2022/12/12 17:39:53;;;;;;;;;;;;;;;;;;5093157;28;887;-67
2022/12/12 17:42:19;;;;;;;;;;;;;;;;;;5094073;28;908;-68